createdAt,value
2018-10-02T00:02:04.387Z,55.29
2018-10-02T00:04:32.000Z,54.88
2018-10-02T00:06:59.644Z,55.68
2018-10-02T00:09:27.313Z,55.02
2018-10-02T00:12:00.231Z,55.69
2018-10-02T00:14:29.416Z,55.34
2018-10-02T00:16:57.368Z,55.38
2018-10-02T00:19:25.012Z,55.78
2018-10-02T00:21:52.644Z,55.44
2018-10-02T00:24:20.445Z,55.44
2018-10-02T00:26:48.137Z,55.73
2018-10-02T00:29:16.084Z,55.70
2018-10-02T00:31:43.760Z,55.01
2018-10-02T00:34:11.661Z,55.55
2018-10-02T00:36:39.602Z,54.91
2018-10-02T00:39:07.313Z,55.07
2018-10-02T00:41:34.993Z,55.39
2018-10-02T00:44:02.637Z,55.07
2018-10-02T00:46:30.543Z,55.73
2018-10-02T00:48:58.210Z,55.37
2018-10-02T00:51:25.853Z,55.55
2018-10-02T00:53:53.474Z,54.97
2018-10-02T00:56:21.105Z,55.57
2018-10-02T00:58:48.717Z,55.22
2018-10-02T01:01:16.451Z,55.57
2018-10-02T01:03:44.086Z,55.35
2018-10-02T01:06:11.738Z,55.10
2018-10-02T01:08:39.406Z,55.86
2018-10-02T01:11:07.046Z,55.88
2018-10-02T01:13:34.688Z,55.77
2018-10-02T01:16:02.321Z,55.64
2018-10-02T01:18:29.955Z,55.35
2018-10-02T01:20:57.610Z,55.10
2018-10-02T01:23:25.237Z,55.13
2018-10-02T01:25:52.862Z,55.75
2018-10-02T01:28:20.521Z,55.19
2018-10-02T01:30:48.321Z,55.57
2018-10-02T01:33:15.953Z,55.83
2018-10-02T01:35:43.564Z,55.65
2018-10-02T01:38:11.214Z,55.87
2018-10-02T01:40:38.832Z,55.37
2018-10-02T01:43:06.452Z,55.99
2018-10-02T01:45:34.085Z,55.16
2018-10-02T01:48:01.863Z,55.38
2018-10-02T01:50:29.510Z,55.23
2018-10-02T01:52:57.133Z,55.70
2018-10-02T01:55:24.779Z,55.10
2018-10-02T01:57:52.441Z,55.71
2018-10-02T02:00:20.085Z,55.96
2018-10-02T02:02:47.749Z,55.94
2018-10-02T02:05:15.393Z,55.70
2018-10-02T02:07:43.018Z,55.91
2018-10-02T02:10:10.657Z,55.31
2018-10-02T02:12:38.324Z,55.48
2018-10-02T02:15:05.945Z,55.60
2018-10-02T02:17:33.733Z,55.75
2018-10-02T02:20:01.365Z,55.27
2018-10-02T02:22:28.989Z,56.04
2018-10-02T02:24:56.593Z,55.78
2018-10-02T02:27:24.254Z,55.29
2018-10-02T02:29:51.896Z,55.98
2018-10-02T02:32:19.814Z,55.06
2018-10-02T02:34:47.449Z,55.18
2018-10-02T02:37:15.124Z,55.89
2018-10-02T02:39:42.737Z,55.35
2018-10-02T02:42:10.404Z,55.37
2018-10-02T02:44:38.050Z,56.06
2018-10-02T02:47:11.028Z,55.82
2018-10-02T02:49:44.024Z,55.62
2018-10-02T02:52:12.551Z,55.51
2018-10-02T02:54:40.165Z,55.79
2018-10-02T02:57:07.814Z,55.20
2018-10-02T02:59:35.432Z,55.37
2018-10-02T03:02:03.099Z,55.29
2018-10-02T03:04:30.735Z,55.80
2018-10-02T03:06:58.364Z,56.01
2018-10-02T03:09:26.030Z,55.39
2018-10-02T03:11:53.678Z,56.08
2018-10-02T03:14:21.320Z,56.11
2018-10-02T03:16:48.981Z,56.08
2018-10-02T03:19:16.658Z,56.14
2018-10-02T03:21:44.346Z,56.00
2018-10-02T03:24:11.951Z,55.64
2018-10-02T03:26:39.619Z,56.13
2018-10-02T03:29:07.354Z,55.96
2018-10-02T03:31:34.981Z,55.63
2018-10-02T03:34:02.608Z,55.34
2018-10-02T03:36:30.234Z,55.83
2018-10-02T03:38:57.865Z,55.39
2018-10-02T03:41:25.492Z,55.65
2018-10-02T03:43:53.144Z,55.53
2018-10-02T03:46:20.784Z,56.01
2018-10-02T03:48:48.535Z,55.91
2018-10-02T03:51:16.089Z,56.16
2018-10-02T03:53:43.733Z,55.51
2018-10-02T03:56:11.392Z,56.10
2018-10-02T03:58:39.036Z,55.42
2018-10-02T04:01:06.666Z,55.98
2018-10-02T04:03:34.354Z,55.91
2018-10-02T04:06:02.006Z,55.41
2018-10-02T04:08:29.641Z,56.28
2018-10-02T04:10:57.301Z,56.19
2018-10-02T04:13:24.931Z,55.60
2018-10-02T04:15:52.566Z,55.78
2018-10-02T04:18:20.193Z,55.49
2018-10-02T04:20:47.844Z,56.30
2018-10-02T04:23:15.506Z,55.51
2018-10-02T04:25:43.136Z,56.00
2018-10-02T04:28:10.837Z,56.22
2018-10-02T04:30:38.433Z,56.18
2018-10-02T04:33:06.129Z,55.44
2018-10-02T04:35:33.773Z,56.17
2018-10-02T04:38:01.411Z,55.96
2018-10-02T04:40:29.101Z,55.97
2018-10-02T04:42:56.724Z,56.24
2018-10-02T04:45:24.453Z,55.69
2018-10-02T04:47:53.827Z,55.45
2018-10-02T04:50:21.802Z,56.05
2018-10-02T04:52:49.438Z,55.92
2018-10-02T04:55:17.070Z,55.91
2018-10-02T04:57:44.714Z,56.17
2018-10-02T05:00:12.350Z,55.88
2018-10-02T05:02:40.019Z,56.19
2018-10-02T05:05:07.685Z,56.22
2018-10-02T05:07:35.322Z,56.34
2018-10-02T05:10:02.982Z,56.01
2018-10-02T05:12:30.626Z,55.66
2018-10-02T05:14:58.320Z,56.21
2018-10-02T05:17:25.951Z,56.23
2018-10-02T05:19:53.606Z,55.54
2018-10-02T05:22:21.241Z,55.60
2018-10-02T05:24:48.868Z,56.33
2018-10-02T05:27:16.566Z,55.61
2018-10-02T05:29:44.177Z,56.09
2018-10-02T05:32:11.884Z,56.35
2018-10-02T05:34:39.518Z,56.41
2018-10-02T05:37:07.155Z,55.73
2018-10-02T05:39:34.798Z,56.33
2018-10-02T05:42:02.437Z,56.14
2018-10-02T05:44:30.057Z,56.37
2018-10-02T05:46:57.692Z,55.79
2018-10-02T05:49:25.357Z,55.85
2018-10-02T05:51:53.001Z,56.10
2018-10-02T05:54:20.642Z,56.21
2018-10-02T05:56:48.311Z,55.61
2018-10-02T05:59:15.965Z,56.35
2018-10-02T06:01:43.640Z,55.57
2018-10-02T06:04:11.285Z,56.14
2018-10-02T06:06:38.921Z,56.33
2018-10-02T06:09:07.952Z,56.22
2018-10-02T06:11:35.594Z,55.94
2018-10-02T06:14:03.238Z,55.93
2018-10-02T06:16:30.865Z,56.20
2018-10-02T06:18:58.473Z,56.34
2018-10-02T06:21:26.101Z,56.33
2018-10-02T06:23:53.737Z,56.09
2018-10-02T06:26:21.391Z,55.50
2018-10-02T06:28:49.019Z,56.08
2018-10-02T06:31:16.642Z,55.66
2018-10-02T06:33:44.290Z,56.21
2018-10-02T06:36:11.930Z,56.12
2018-10-02T06:38:39.700Z,55.81
2018-10-02T06:41:07.266Z,56.23
2018-10-02T06:43:34.949Z,55.84
2018-10-02T06:46:02.578Z,55.63
2018-10-02T06:48:30.215Z,55.46
2018-10-02T06:50:57.924Z,54.75
2018-10-02T06:53:25.549Z,55.00
2018-10-02T06:55:53.206Z,54.66
2018-10-02T06:58:20.850Z,55.26
2018-10-02T07:00:48.705Z,54.60
2018-10-02T07:03:16.359Z,55.08
2018-10-02T07:05:43.973Z,55.11
2018-10-02T07:08:11.612Z,54.51
2018-10-02T07:10:39.239Z,54.24
2018-10-02T07:13:06.890Z,54.21
2018-10-02T07:15:34.528Z,55.52
2018-10-02T07:18:02.162Z,54.92
2018-10-02T07:20:29.803Z,55.08
2018-10-02T07:22:57.433Z,55.23
2018-10-02T07:25:25.096Z,54.78
2018-10-02T07:27:52.823Z,54.59
2018-10-02T07:30:20.390Z,55.58
2018-10-02T07:32:48.052Z,55.06
2018-10-02T07:35:15.668Z,55.71
2018-10-02T07:37:43.562Z,55.57
2018-10-02T07:40:11.190Z,55.50
2018-10-02T07:42:38.830Z,55.13
2018-10-02T07:45:06.594Z,55.07
2018-10-02T07:47:34.241Z,55.59
2018-10-02T07:50:01.856Z,55.88
2018-10-02T07:52:29.514Z,55.13
2018-10-02T07:54:57.177Z,55.53
2018-10-02T07:57:24.810Z,55.17
2018-10-02T07:59:52.484Z,55.10
2018-10-02T08:02:20.146Z,55.08
2018-10-02T08:04:47.805Z,55.57
2018-10-02T08:07:15.450Z,54.94
2018-10-02T08:09:43.088Z,53.95
2018-10-02T08:12:10.823Z,53.88
2018-10-02T08:14:38.441Z,54.98
2018-10-02T08:17:06.101Z,54.33
2018-10-02T08:19:33.724Z,54.33
2018-10-02T08:22:01.388Z,54.51
2018-10-02T08:24:29.005Z,54.65
2018-10-02T08:26:56.709Z,55.28
2018-10-02T08:29:24.393Z,55.33
2018-10-02T08:31:51.956Z,54.84
2018-10-02T08:34:19.585Z,55.18
2018-10-02T08:36:47.224Z,53.94
2018-10-02T08:39:14.879Z,54.51
2018-10-02T08:41:42.566Z,54.99
2018-10-02T08:44:10.197Z,54.83
2018-10-02T08:46:37.878Z,55.74
2018-10-02T08:49:05.534Z,55.85
2018-10-02T08:51:33.202Z,55.70
2018-10-02T08:54:00.875Z,55.64
2018-10-02T08:56:28.492Z,55.44
2018-10-02T08:58:56.122Z,54.59
2018-10-02T09:01:23.755Z,54.98
2018-10-02T09:03:51.386Z,55.08
2018-10-02T09:06:19.039Z,55.26
2018-10-02T09:08:46.670Z,54.97
2018-10-02T09:11:14.304Z,54.60
2018-10-02T09:13:42.012Z,54.59
2018-10-02T09:16:09.694Z,55.55
2018-10-02T09:18:37.343Z,55.04
2018-10-02T09:21:04.957Z,55.72
2018-10-02T09:23:32.657Z,55.35
2018-10-02T09:26:00.303Z,55.01
2018-10-02T09:28:27.992Z,54.70
2018-10-02T09:31:01.043Z,54.85
2018-10-02T09:34:34.848Z,55.51
2018-10-02T09:37:08.004Z,55.71
2018-10-02T09:39:41.001Z,54.91
2018-10-02T09:42:13.665Z,54.67
2018-10-02T09:44:41.328Z,55.00
2018-10-02T09:47:08.948Z,54.73
2018-10-02T09:49:36.671Z,55.36
2018-10-02T09:52:04.304Z,55.09
2018-10-02T09:54:31.961Z,55.30
2018-10-02T09:56:59.658Z,54.85
2018-10-02T09:59:27.292Z,54.62
2018-10-02T10:02:00.302Z,54.33
2018-10-02T10:04:27.924Z,54.44
2018-10-02T10:06:55.590Z,54.60
2018-10-02T10:09:23.233Z,54.56
2018-10-02T10:11:50.890Z,55.42
2018-10-02T10:14:18.532Z,54.43
2018-10-02T10:16:46.345Z,54.48
2018-10-02T10:19:13.805Z,54.41
2018-10-02T10:21:41.442Z,55.15
2018-10-02T10:24:09.074Z,54.49
2018-10-02T10:26:36.741Z,54.53
2018-10-02T10:29:04.442Z,55.48
2018-10-02T10:31:32.062Z,55.39
2018-10-02T10:34:00.072Z,55.15
2018-10-02T10:36:27.702Z,55.23
2018-10-02T10:38:55.316Z,55.06
2018-10-02T10:41:22.954Z,54.61
2018-10-02T10:43:50.580Z,54.64
2018-10-02T10:46:18.184Z,55.00
2018-10-02T10:48:45.825Z,54.73
2018-10-02T10:51:13.464Z,54.78
2018-10-02T10:53:41.076Z,55.25
2018-10-02T10:56:08.722Z,54.77
2018-10-02T10:58:36.359Z,55.59
2018-10-02T11:01:04.002Z,54.76
2018-10-02T11:03:31.661Z,55.58
2018-10-02T11:05:59.327Z,55.14
2018-10-02T11:08:26.970Z,54.83
2018-10-02T11:10:54.616Z,54.87
2018-10-02T11:13:22.266Z,54.90
2018-10-02T11:15:49.906Z,55.04
2018-10-02T11:18:17.537Z,55.05
2018-10-02T11:20:45.248Z,55.42
2018-10-02T11:23:12.874Z,55.16
2018-10-02T11:25:40.530Z,54.92
2018-10-02T11:28:08.161Z,55.32
2018-10-02T11:30:35.798Z,55.40
2018-10-02T11:33:03.419Z,54.74
2018-10-02T11:35:31.147Z,54.61
2018-10-02T11:37:58.764Z,55.02
2018-10-02T11:40:26.410Z,55.23
2018-10-02T11:42:54.154Z,55.67
2018-10-02T11:45:21.903Z,54.79
2018-10-02T11:47:49.543Z,55.33
2018-10-02T11:50:17.164Z,55.03
2018-10-02T11:52:44.781Z,54.82
2018-10-02T11:55:12.462Z,55.64
2018-10-02T11:57:40.180Z,55.42
2018-10-02T12:00:08.026Z,54.98
2018-10-02T12:02:35.722Z,54.89
2018-10-02T12:05:03.330Z,54.83
2018-10-02T12:07:30.968Z,54.86
2018-10-02T12:09:58.588Z,55.02
2018-10-02T12:12:26.243Z,55.32
2018-10-02T12:14:53.945Z,55.44
2018-10-02T12:17:21.526Z,55.05
2018-10-02T12:19:49.397Z,54.93
2018-10-02T12:22:16.808Z,54.92
2018-10-02T12:24:44.434Z,55.11
2018-10-02T12:27:12.086Z,55.30
2018-10-02T12:29:39.785Z,55.03
2018-10-02T12:32:07.498Z,55.33
2018-10-02T12:34:35.134Z,55.30
2018-10-02T12:37:02.765Z,55.70
2018-10-02T12:39:30.398Z,56.01
2018-10-02T12:41:58.049Z,55.66
2018-10-02T12:44:25.687Z,55.73
2018-10-02T12:46:53.511Z,55.33
2018-10-02T12:49:21.162Z,55.40
2018-10-02T12:51:48.788Z,55.82
2018-10-02T12:54:16.421Z,55.29
2018-10-02T12:56:44.050Z,55.66
2018-10-02T12:59:11.694Z,55.29
2018-10-02T13:01:39.366Z,55.48
2018-10-02T13:04:07.154Z,55.03
2018-10-02T13:06:34.938Z,55.89
2018-10-02T13:09:02.634Z,55.03
2018-10-02T13:11:30.274Z,56.07
2018-10-02T13:13:57.909Z,55.23
2018-10-02T13:16:25.560Z,55.18
2018-10-02T13:18:53.247Z,55.97
2018-10-02T13:21:20.918Z,55.19
2018-10-02T13:23:48.550Z,55.16
2018-10-02T13:26:16.185Z,55.80
2018-10-02T13:28:43.833Z,55.69
2018-10-02T13:31:11.646Z,56.10
2018-10-02T13:33:39.293Z,55.43
2018-10-02T13:36:07.333Z,55.59
2018-10-02T13:38:34.982Z,55.45
2018-10-02T13:41:02.627Z,55.90
2018-10-02T13:43:30.297Z,55.42
2018-10-02T13:45:57.976Z,55.18
2018-10-02T13:48:25.607Z,55.17
2018-10-02T13:50:53.243Z,55.21
2018-10-02T13:53:20.890Z,56.01
2018-10-02T13:55:48.531Z,55.59
2018-10-02T13:58:16.181Z,55.93
2018-10-02T14:00:43.805Z,55.49
2018-10-02T14:03:11.488Z,55.05
2018-10-02T14:05:39.128Z,55.70
2018-10-02T14:08:06.761Z,55.34
2018-10-02T14:10:34.423Z,55.19
2018-10-02T14:13:02.052Z,55.32
2018-10-02T14:15:29.701Z,55.54
2018-10-02T14:17:57.336Z,55.17
2018-10-02T14:20:25.029Z,55.98
2018-10-02T14:22:52.906Z,56.08
2018-10-02T14:25:20.555Z,55.53
2018-10-02T14:27:48.253Z,55.50
2018-10-02T14:30:15.917Z,55.38
2018-10-02T14:32:43.549Z,55.82
2018-10-02T14:35:11.194Z,56.00
2018-10-02T14:37:38.865Z,56.10
2018-10-02T14:40:06.537Z,55.78
2018-10-02T14:42:34.153Z,55.30
2018-10-02T14:45:01.785Z,55.51
2018-10-02T14:47:29.548Z,55.69
2018-10-02T14:49:57.184Z,55.36
2018-10-02T14:52:24.813Z,55.39
2018-10-02T14:54:52.473Z,55.99
2018-10-02T14:57:20.109Z,55.26
2018-10-02T14:59:47.761Z,55.37
2018-10-02T15:02:15.392Z,55.87
2018-10-02T15:04:43.048Z,55.38
2018-10-02T15:07:10.777Z,55.51
2018-10-02T15:09:38.422Z,55.68
2018-10-02T15:12:06.181Z,56.06
2018-10-02T15:14:33.763Z,55.46
2018-10-02T15:17:01.406Z,55.29
2018-10-02T15:19:29.038Z,55.42
2018-10-02T15:21:56.667Z,55.96
2018-10-02T15:24:24.301Z,55.28
2018-10-02T15:26:52.567Z,55.17
2018-10-02T15:29:20.228Z,55.81
2018-10-02T15:31:47.877Z,55.18
2018-10-02T15:34:15.630Z,56.11
2018-10-02T15:36:43.256Z,55.27
2018-10-02T15:39:11.373Z,55.98
2018-10-02T15:41:39.622Z,55.13
2018-10-02T15:44:07.297Z,55.50
2018-10-02T15:46:34.950Z,55.27
2018-10-02T15:49:02.638Z,55.83
2018-10-02T15:51:30.265Z,56.20
2018-10-02T15:53:57.938Z,56.10
2018-10-02T15:56:26.108Z,55.38
2018-10-02T15:58:53.835Z,55.63
2018-10-02T16:01:21.514Z,55.43
2018-10-02T16:03:49.170Z,56.21
2018-10-02T16:06:16.807Z,55.47
2018-10-02T16:08:44.477Z,56.11
2018-10-02T16:11:12.145Z,56.23
2018-10-02T16:13:39.769Z,56.21
2018-10-02T16:16:07.429Z,55.42
2018-10-02T16:18:35.067Z,55.51
2018-10-02T16:21:02.710Z,55.84
2018-10-02T16:23:30.346Z,56.08
2018-10-02T16:25:57.969Z,56.10
2018-10-02T16:28:25.613Z,56.06
2018-10-02T16:30:53.242Z,56.06
2018-10-02T16:33:20.902Z,55.43
2018-10-02T16:35:48.524Z,55.39
2018-10-02T16:38:16.177Z,55.86
2018-10-02T16:40:43.865Z,55.23
2018-10-02T16:43:11.501Z,56.01
2018-10-02T16:45:39.177Z,55.79
2018-10-02T16:48:06.809Z,55.56
2018-10-02T16:50:34.441Z,56.12
2018-10-02T16:53:02.079Z,55.61
2018-10-02T16:55:29.721Z,55.94
2018-10-02T16:57:57.480Z,55.36
2018-10-02T17:00:25.127Z,55.32
2018-10-02T17:02:52.773Z,55.36
2018-10-02T17:05:20.411Z,55.62
2018-10-02T17:07:48.079Z,56.15
2018-10-02T17:10:15.774Z,55.90
2018-10-02T17:12:43.406Z,55.39
2018-10-02T17:15:11.074Z,56.14
2018-10-02T17:17:38.715Z,56.04
2018-10-02T17:20:06.931Z,56.13
2018-10-02T17:22:34.629Z,56.06
2018-10-02T17:25:02.274Z,55.41
2018-10-02T17:27:29.928Z,55.72
2018-10-02T17:29:57.659Z,55.45
2018-10-02T17:32:25.290Z,55.83
2018-10-02T17:34:52.925Z,56.11
2018-10-02T17:37:20.561Z,56.18
2018-10-02T17:39:48.201Z,55.82
2018-10-02T17:42:15.854Z,55.95
2018-10-02T17:44:43.474Z,56.06
2018-10-02T17:47:11.327Z,55.31
2018-10-02T17:49:38.971Z,56.08
2018-10-02T17:52:06.854Z,56.23
2018-10-02T17:54:34.485Z,56.20
2018-10-02T17:57:02.120Z,56.08
2018-10-02T17:59:29.744Z,56.17
2018-10-02T18:01:57.400Z,55.53
2018-10-02T18:04:25.009Z,56.09
2018-10-02T18:06:52.769Z,56.19
2018-10-02T18:09:20.421Z,55.56
2018-10-02T18:11:48.139Z,55.45
2018-10-02T18:14:15.761Z,56.12
2018-10-02T18:16:43.409Z,55.70
2018-10-02T18:19:11.036Z,55.93
2018-10-02T18:21:38.741Z,55.72
2018-10-02T18:24:06.326Z,56.18
2018-10-02T18:26:34.010Z,56.37
2018-10-02T18:29:01.635Z,56.14
2018-10-02T18:31:29.271Z,55.73
2018-10-02T18:33:56.893Z,55.44
2018-10-02T18:36:24.529Z,56.35
2018-10-02T18:38:52.234Z,56.12
2018-10-02T18:41:19.821Z,55.99
2018-10-02T18:43:47.490Z,55.74
2018-10-02T18:46:15.125Z,56.26
2018-10-02T18:48:42.783Z,55.51
2018-10-02T18:51:10.398Z,56.21
2018-10-02T18:53:38.082Z,56.27
2018-10-02T18:56:05.767Z,55.74
2018-10-02T18:58:33.397Z,56.13
2018-10-02T19:01:01.046Z,55.67
2018-10-02T19:03:28.837Z,55.46
2018-10-02T19:05:56.475Z,56.25
2018-10-02T19:08:29.510Z,55.44
2018-10-02T19:11:01.357Z,55.42
2018-10-02T19:13:29.233Z,56.27
2018-10-02T19:16:02.177Z,56.25
2018-10-02T19:18:29.833Z,56.22
2018-10-02T19:20:57.487Z,56.24
2018-10-02T19:23:25.113Z,56.30
2018-10-02T19:25:58.122Z,55.46
2018-10-02T19:28:25.761Z,55.48
2018-10-02T19:30:58.727Z,55.91
2018-10-02T19:33:26.357Z,55.46
2018-10-02T19:35:54.009Z,56.28
2018-10-02T19:38:27.050Z,56.26
2018-10-02T19:40:54.697Z,56.04
2018-10-02T19:43:22.329Z,56.28
2018-10-02T19:45:55.382Z,56.07
2018-10-02T19:48:23.038Z,56.27
2018-10-02T19:50:50.666Z,56.06
2018-10-02T19:53:18.294Z,55.79
2018-10-02T19:55:45.913Z,56.26
2018-10-02T19:58:13.533Z,56.28
2018-10-02T20:00:41.163Z,56.27
2018-10-02T20:03:08.821Z,55.49
2018-10-02T20:05:36.444Z,55.96
2018-10-02T20:08:04.098Z,56.05
2018-10-02T20:10:31.726Z,56.21
2018-10-02T20:12:59.385Z,56.26
2018-10-02T20:15:27.045Z,56.24
2018-10-02T20:17:54.667Z,55.48
2018-10-02T20:20:22.333Z,56.19
2018-10-02T20:22:49.980Z,55.59
2018-10-02T20:25:17.613Z,55.75
2018-10-02T20:27:45.249Z,56.24
2018-10-02T20:30:12.886Z,55.49
2018-10-02T20:32:40.535Z,55.48
2018-10-02T20:35:08.178Z,55.60
2018-10-02T20:37:35.818Z,56.04
2018-10-02T20:40:03.461Z,56.14
2018-10-02T20:42:31.130Z,55.59
2018-10-02T20:44:58.771Z,56.22
2018-10-02T20:47:26.391Z,55.41
2018-10-02T20:49:54.056Z,56.03
2018-10-02T20:52:21.685Z,56.20
2018-10-02T20:54:49.323Z,56.04
2018-10-02T20:57:16.966Z,56.07
2018-10-02T20:59:44.618Z,55.81
2018-10-02T21:02:12.254Z,56.32
2018-10-02T21:04:39.872Z,55.56
2018-10-02T21:07:07.583Z,56.29
2018-10-02T21:09:35.184Z,56.05
2018-10-02T21:12:02.853Z,56.14
2018-10-02T21:14:30.572Z,55.86
2018-10-02T21:16:58.162Z,55.66
2018-10-02T21:19:25.804Z,55.64
2018-10-02T21:21:53.510Z,56.13
2018-10-02T21:24:21.104Z,55.55
2018-10-02T21:26:48.775Z,56.08
2018-10-02T21:29:16.436Z,56.30
2018-10-02T21:31:44.176Z,55.94
2018-10-02T21:34:11.756Z,55.79
2018-10-02T21:36:39.384Z,55.64
2018-10-02T21:39:08.059Z,56.13
2018-10-02T21:41:35.716Z,56.37
2018-10-02T21:44:03.350Z,56.21
2018-10-02T21:46:31.018Z,55.80
2018-10-02T21:48:58.656Z,55.64
2018-10-02T21:51:26.341Z,56.36
2018-10-02T21:53:53.961Z,56.32
2018-10-02T21:56:21.592Z,56.35
2018-10-02T21:58:49.227Z,55.61
2018-10-02T22:01:16.853Z,56.47
2018-10-02T22:03:44.542Z,56.51
2018-10-02T22:06:12.174Z,56.17
2018-10-02T22:08:39.837Z,56.44
2018-10-02T22:11:07.462Z,56.22
2018-10-02T22:13:35.135Z,55.89
2018-10-02T22:16:02.764Z,56.39
2018-10-02T22:18:30.422Z,55.63
2018-10-02T22:20:58.122Z,56.17
2018-10-02T22:23:25.917Z,56.50
2018-10-02T22:25:53.567Z,56.39
2018-10-02T22:28:21.194Z,56.13
2018-10-02T22:30:48.823Z,56.16
2018-10-02T22:33:16.530Z,56.21
2018-10-02T22:35:44.115Z,56.46
2018-10-02T22:38:11.766Z,56.50
2018-10-02T22:40:39.425Z,56.33
2018-10-02T22:43:07.068Z,56.33
2018-10-02T22:45:34.720Z,56.08
2018-10-02T22:48:02.354Z,56.16
2018-10-02T22:50:30.884Z,55.61
2018-10-02T22:52:58.499Z,56.19
2018-10-02T22:55:26.209Z,56.41
2018-10-02T22:57:53.824Z,56.14
2018-10-02T23:00:21.467Z,56.41
2018-10-02T23:02:49.084Z,55.61
2018-10-02T23:05:16.733Z,55.70
2018-10-02T23:07:44.366Z,55.62
2018-10-02T23:10:12.012Z,55.94
2018-10-02T23:12:39.634Z,56.02
2018-10-02T23:15:07.283Z,55.89
2018-10-02T23:17:35.004Z,56.15
2018-10-02T23:20:02.666Z,55.85
2018-10-02T23:22:30.297Z,56.35
2018-10-02T23:24:57.984Z,55.90
2018-10-02T23:27:25.625Z,56.49
2018-10-02T23:29:53.305Z,56.41
2018-10-02T23:32:21.005Z,55.73
2018-10-02T23:34:48.617Z,56.17
2018-10-02T23:37:16.321Z,55.72
2018-10-02T23:39:43.962Z,55.90
2018-10-02T23:42:11.634Z,56.29
2018-10-02T23:44:39.261Z,55.93
2018-10-02T23:47:06.905Z,56.43
2018-10-02T23:49:34.558Z,56.40
2018-10-02T23:52:02.194Z,56.03
2018-10-02T23:54:29.826Z,55.94
2018-10-02T23:56:57.457Z,56.44
2018-10-02T23:59:25.092Z,56.45
